Time;durP1;ratioP1;P1;durP2;ratioP2;P2;SDS_P1;SDS_P2;PMS_P1;PMS_P2;Temp;Humidity;BMP_temperature;BMP_pressure;BME280_temperature;BME280_humidity;BME280_pressure;Samples;Min_cycle;Max_cycle;Signal;HPM_P1;HPM_P2
2021/09/07 00:01:27;;;;;;;10.35;6.57;;;14.10;99.90;;;12.65;94.08;102023.97;2567308;30;138275;-41
2021/09/07 00:03:54;;;;;;;10.65;6.25;;;14.00;99.90;;;12.64;94.00;102025.00;2569214;30;138291;-41
2021/09/07 00:06:22;;;;;;;11.95;7.00;;;14.00;99.90;;;12.61;93.90;102025.41;2568561;30;137784;-41
2021/09/07 00:08:49;;;;;;;11.82;7.13;;;14.00;99.90;;;12.58;94.13;102028.53;2568057;30;136761;-41
2021/09/07 00:11:17;;;;;;;10.25;6.38;;;14.00;99.90;;;12.59;94.27;102035.69;2566101;30;137978;-42
2021/09/07 00:13:45;;;;;;;9.70;6.57;;;13.90;99.90;;;12.58;94.58;102037.56;2565781;30;138172;-41
2021/09/07 00:16:16;;;;;;;9.95;6.57;;;13.90;99.90;;;12.55;94.59;102029.75;2568059;30;138161;-41
2021/09/07 00:18:43;;;;;;;11.15;6.20;;;14.00;99.90;;;12.54;94.26;102019.84;2568318;30;137109;-41
2021/09/07 00:21:11;;;;;;;10.40;6.15;;;13.90;99.90;;;12.55;94.53;102028.94;2568414;30;137677;-42
2021/09/07 00:23:39;;;;;;;11.95;6.47;;;13.90;99.90;;;12.54;94.77;102027.25;2567597;30;139194;-42
2021/09/07 00:26:06;;;;;;;10.88;6.70;;;13.90;99.90;;;12.54;95.01;102024.50;2568140;30;137021;-41
2021/09/07 00:28:34;;;;;;;9.77;6.43;;;13.90;99.90;;;12.51;95.08;102028.47;2567855;30;138453;-41
2021/09/07 00:31:02;;;;;;;9.32;6.15;;;13.90;99.90;;;12.50;94.87;102027.63;2568074;30;138232;-41
2021/09/07 00:33:30;;;;;;;9.32;5.90;;;13.90;99.90;;;12.48;94.95;102024.25;2566664;30;138756;-41
2021/09/07 00:35:58;;;;;;;;;;;13.90;99.90;;;12.45;94.60;102024.59;2567680;30;136783;-41
2021/09/07 00:38:25;;;;;;;10.65;6.15;;;13.90;99.90;;;12.47;94.97;102013.47;2567445;30;138902;-41
2021/09/07 00:40:54;;;;;;;11.32;6.50;;;13.90;99.90;;;12.47;95.59;102022.56;2569216;30;137443;-41
2021/09/07 00:43:21;;;;;;;9.38;6.03;;;13.80;99.90;;;12.45;95.79;102024.59;2567589;30;138257;-41
2021/09/07 00:45:49;;;;;;;9.93;6.00;;;13.80;99.90;;;12.41;95.33;102017.84;2567950;30;138261;-38
2021/09/07 00:48:16;;;;;;;9.48;6.30;;;13.80;99.90;;;12.40;95.22;102021.63;2568994;30;139557;-39
2021/09/07 00:50:44;;;;;;;11.60;6.50;;;13.80;99.90;;;12.38;94.97;102018.22;2571216;30;137445;-40
2021/09/07 00:53:12;;;;;;;12.85;6.60;;;13.80;99.90;;;12.34;95.26;102023.28;2568747;30;138889;-39
2021/09/07 00:55:43;;;;;;;9.45;5.75;;;13.70;99.90;;;12.31;94.97;102022.81;2569153;30;136790;-40
2021/09/07 00:58:16;;;;;;;9.15;5.80;;;13.70;99.90;;;12.29;94.77;102011.22;2570793;30;137382;-41
2021/09/07 01:00:45;;;;;;;9.73;5.70;;;13.70;99.90;;;12.28;95.08;102023.19;2566678;30;137814;-40
2021/09/07 01:03:13;;;;;;;10.00;5.90;;;13.70;99.90;;;12.25;95.18;102012.66;2571199;30;137289;-40
2021/09/07 01:05:42;;;;;;;10.60;5.65;;;13.60;99.90;;;12.22;95.63;102006.53;2566095;30;138019;-39
2021/09/07 01:08:11;;;;;;;10.52;6.20;;;13.60;99.90;;;12.23;95.74;102010.94;2568758;30;137501;-40
2021/09/07 01:10:40;;;;;;;10.05;6.07;;;13.60;99.90;;;12.23;95.82;102000.00;2565219;38;137314;-39
2021/09/07 01:13:09;;;;;;;10.48;6.05;;;13.60;99.90;;;12.26;95.92;101992.44;2568719;30;138287;-40
2021/09/07 01:15:38;;;;;;;9.18;5.70;;;13.60;99.90;;;12.25;95.93;101998.97;2568617;30;137423;-40
2021/09/07 01:18:06;;;;;;;9.65;6.10;;;13.60;99.90;;;12.23;95.95;102002.75;2569399;30;138306;-40
2021/09/07 01:20:34;;;;;;;;;;;13.60;99.90;;;12.21;96.17;101995.75;2569203;30;136933;-40
2021/09/07 01:23:02;;;;;;;9.27;5.75;;;13.60;99.90;;;12.20;96.43;101989.44;2568865;30;138525;-39
2021/09/07 01:25:29;;;;;;;9.43;5.68;;;13.60;99.90;;;12.17;96.13;101992.56;2567018;30;137563;-40
2021/09/07 01:27:57;;;;;;;9.30;5.88;;;13.60;99.90;;;12.14;96.53;102000.31;2570410;30;138315;-39
2021/09/07 01:30:24;;;;;;;9.50;5.97;;;13.60;99.90;;;12.12;96.53;101988.72;2569457;30;137370;-40
2021/09/07 01:32:52;;;;;;;8.95;5.53;;;13.50;99.90;;;12.11;96.48;101992.50;2568022;30;138554;-39
2021/09/07 01:35:21;;;;;;;12.43;6.18;;;13.50;99.90;;;12.11;96.55;101992.50;2570231;30;136572;-40
2021/09/07 01:37:48;;;;;;;10.25;6.30;;;13.50;99.90;;;12.06;96.57;101987.59;2570371;30;138831;-40
2021/09/07 01:40:16;;;;;;;10.90;5.72;;;13.50;99.90;;;12.04;96.44;101989.69;2569239;30;136877;-39
2021/09/07 01:42:43;;;;;;;9.65;6.22;;;13.40;99.90;;;12.02;96.34;101986.31;2569096;30;138429;-40
2021/09/07 01:45:12;;;;;;;12.38;6.80;;;13.50;99.90;;;12.05;96.69;101986.75;2568588;30;136976;-39
2021/09/07 01:47:41;;;;;;;9.57;5.78;;;13.50;99.90;;;11.97;96.76;101975.91;2569086;30;138522;-39
2021/09/07 01:50:10;;;;;;;10.45;6.25;;;13.40;99.90;;;11.99;96.64;101981.19;2570230;30;137987;-40
2021/09/07 01:52:37;;;;;;;9.05;5.40;;;13.40;99.90;;;11.97;96.54;101986.84;2569059;30;138216;-39
2021/09/07 01:55:07;;;;;;;9.75;5.72;;;13.40;99.90;;;11.92;96.49;101971.00;2570010;30;137630;-40
2021/09/07 01:57:35;;;;;;;9.00;5.78;;;13.40;99.90;;;11.92;96.42;101975.66;2572146;30;138145;-41
2021/09/07 02:00:06;;;;;;;9.00;5.32;;;13.30;99.90;;;11.89;96.50;101974.13;2569080;30;137368;-39
2021/09/07 02:02:39;;;;;;;9.25;5.82;;;13.30;99.90;;;11.87;96.68;101973.47;2570125;30;136965;-40
2021/09/07 02:05:08;;;;;;;10.35;5.95;;;13.30;99.90;;;11.87;96.60;101976.22;2571485;30;136803;-39
2021/09/07 02:07:37;;;;;;;9.82;6.05;;;13.30;99.90;;;11.90;97.50;101969.53;2567284;30;138042;-40
2021/09/07 02:10:07;;;;;;;10.48;6.18;;;13.30;99.90;;;11.88;97.29;101975.19;2568958;30;138055;-40
2021/09/07 02:12:35;;;;;;;9.00;5.93;;;13.30;99.90;;;11.86;97.33;101977.25;2567399;30;138751;-39
2021/09/07 02:15:04;;;;;;;9.57;5.80;;;13.30;99.90;;;11.84;97.29;101982.06;2566834;30;138365;-39
2021/09/07 02:17:33;;;;;;;9.57;5.38;;;13.30;99.90;;;11.84;97.69;101979.34;2569244;30;138719;-39
2021/09/07 02:20:03;;;;;;;8.98;5.32;;;13.30;99.90;;;11.80;97.47;101980.78;2566745;30;137712;-40
2021/09/07 02:22:31;;;;;;;8.68;5.47;;;13.20;99.90;;;11.76;96.97;101980.28;2569328;30;137062;-39
2021/09/07 02:24:59;;;;;;;9.23;5.53;;;13.20;99.90;;;11.75;96.69;101978.59;2567768;30;137541;-40
2021/09/07 02:27:27;;;;;;;9.35;6.15;;;13.10;99.90;;;11.73;97.01;101977.94;2567544;30;138776;-39
2021/09/07 02:29:55;;;;;;;8.57;5.60;;;13.10;99.90;;;11.72;96.99;101980.88;2570861;30;137080;-39
2021/09/07 02:32:23;;;;;;;10.75;5.72;;;13.10;99.90;;;11.71;97.02;101981.94;2568198;30;138126;-40
2021/09/07 02:34:51;;;;;;;8.90;5.60;;;13.10;99.90;;;11.65;96.87;101967.97;2567890;30;137727;-39
2021/09/07 02:37:22;;;;;;;9.50;5.80;;;13.10;99.90;;;11.65;97.04;101980.81;2568856;30;138342;-40
2021/09/07 02:39:49;;;;;;;8.77;4.80;;;13.00;99.90;;;11.60;97.00;101973.16;2568554;30;137083;-39
2021/09/07 02:42:17;;;;;;;10.85;5.72;;;13.10;99.90;;;11.62;96.96;101982.03;2570432;30;138248;-39
2021/09/07 02:44:45;;;;;;;9.57;5.82;;;13.10;99.90;;;11.62;97.12;101981.19;2567998;30;137577;-39
2021/09/07 02:47:16;;;;;;;9.02;5.70;;;13.00;99.90;;;11.60;97.03;101977.81;2568880;30;138981;-39
2021/09/07 02:49:44;;;;;;;9.88;6.10;;;13.00;99.90;;;11.56;97.08;101971.03;2568959;30;138382;-39
2021/09/07 02:52:13;;;;;;;10.73;5.78;;;12.90;99.90;;;11.54;96.78;101968.47;2569290;30;138217;-39
2021/09/07 02:54:41;;;;;;;10.55;6.13;;;13.00;99.90;;;11.54;97.09;101973.94;2568784;30;137462;-40
2021/09/07 02:57:09;;;;;;;10.90;5.45;;;12.90;99.90;;;11.54;97.35;101970.34;2570181;30;138478;-39
2021/09/07 02:59:37;;;;;;;9.95;5.45;;;12.90;99.90;;;11.55;97.73;101974.81;2569187;30;138041;-39
2021/09/07 03:02:05;;;;;;;9.38;5.38;;;12.90;99.90;;;11.50;97.54;101968.00;2567730;30;138274;-39
2021/09/07 03:04:33;;;;;;;8.85;5.45;;;12.90;99.90;;;11.48;97.45;101964.59;2567737;30;136793;-39
2021/09/07 03:07:01;;;;;;;9.30;5.68;;;12.90;99.90;;;11.46;97.45;101969.41;2568240;30;138386;-39
2021/09/07 03:09:29;;;;;;;9.18;5.25;;;12.90;99.90;;;11.45;97.54;101964.16;2568786;30;137877;-40
2021/09/07 03:11:58;;;;;;;9.75;5.53;;;12.90;99.90;;;11.48;97.36;101974.72;2567611;30;137267;-39
2021/09/07 03:14:26;;;;;;;10.95;5.50;;;12.90;99.90;;;11.47;97.32;101967.56;2564802;30;136952;-40
2021/09/07 03:16:55;;;;;;;10.15;5.95;;;12.90;99.90;;;11.48;97.07;101977.44;2568476;30;137294;-39
2021/09/07 03:19:22;;;;;;;10.90;5.68;;;12.90;99.90;;;11.42;97.34;101967.28;2569139;30;137509;-39
2021/09/07 03:21:50;;;;;;;10.05;5.70;;;12.90;99.90;;;11.51;97.36;101964.22;2570118;30;138400;-40
2021/09/07 03:24:18;;;;;;;9.40;6.10;;;12.90;99.90;;;11.52;97.28;101963.19;2568438;30;137519;-38
2021/09/07 03:26:46;;;;;;;8.85;5.78;;;12.90;99.90;;;11.50;97.72;101956.22;2568383;30;138813;-40
2021/09/07 03:29:15;;;;;;;12.05;5.50;;;13.00;99.90;;;11.60;97.93;101961.41;2568349;30;138192;-40
2021/09/07 03:31:42;;;;;;;9.70;5.78;;;13.00;99.90;;;11.66;98.44;101961.47;2570198;30;137282;-40
2021/09/07 03:34:11;;;;;;;11.65;6.15;;;13.00;99.90;;;11.71;99.22;101965.53;2569125;30;137436;-39
2021/09/07 03:36:40;;;;;;;10.88;6.43;;;13.10;99.90;;;11.74;99.02;101968.72;2568202;30;138289;-39
2021/09/07 03:39:08;;;;;;;10.95;6.50;;;13.10;99.90;;;11.79;99.32;101971.69;2569130;30;136700;-39
2021/09/07 03:41:35;;;;;;;11.02;6.28;;;13.20;99.90;;;11.85;99.71;101970.09;2569277;30;137414;-40
2021/09/07 03:44:03;;;;;;;11.35;6.78;;;13.20;99.90;;;11.90;100.00;101966.78;2568479;30;136841;-39
2021/09/07 03:46:31;;;;;;;10.13;6.38;;;13.30;99.90;;;11.94;100.00;101973.56;2567454;30;137485;-39
2021/09/07 03:49:01;;;;;;;9.88;5.90;;;13.30;99.90;;;12.01;100.00;101977.25;2566929;30;137550;-40
2021/09/07 03:51:31;;;;;;;11.25;6.63;;;13.30;99.90;;;12.02;100.00;101970.72;2568469;30;139908;-39
2021/09/07 03:53:59;;;;;;;10.25;6.20;;;13.40;99.90;;;12.06;100.00;101977.50;2567531;30;137624;-39
2021/09/07 03:56:28;;;;;;;11.48;6.57;;;13.40;99.90;;;12.11;100.00;101978.84;2567718;30;137188;-40
2021/09/07 03:58:57;;;;;;;11.00;6.70;;;13.40;99.90;;;12.13;100.00;101974.84;2570205;30;138210;-39
2021/09/07 04:01:25;;;;;;;11.90;6.70;;;13.50;99.90;;;12.17;100.00;101978.03;2571191;30;138366;-39
2021/09/07 04:03:52;;;;;;;10.68;6.50;;;13.50;99.90;;;12.20;100.00;101972.19;2568740;30;137217;-39
2021/09/07 04:06:20;;;;;;;;;;;13.50;99.90;;;12.22;100.00;101972.81;2569828;30;136941;-39
2021/09/07 04:08:48;;;;;;;12.23;6.68;;;13.60;99.90;;;12.27;100.00;101973.09;2567483;30;137632;-40
2021/09/07 04:11:15;;;;;;;12.80;6.50;;;13.60;99.90;;;12.32;100.00;101978.81;2569790;30;137074;-39
2021/09/07 04:13:43;;;;;;;;;;;13.70;99.90;;;12.35;100.00;101970.22;2569847;30;137658;-39
2021/09/07 04:16:12;;;;;;;12.00;6.70;;;13.70;99.90;;;12.39;100.00;101973.41;2568247;30;139016;-39
2021/09/07 04:18:40;;;;;;;;;;;13.70;99.90;;;12.42;100.00;101972.19;2569253;30;137412;-40
2021/09/07 04:21:10;;;;;;;10.32;6.00;;;13.80;99.90;;;12.46;100.00;101966.09;2570088;30;138967;-40
2021/09/07 04:23:38;;;;;;;12.73;6.78;;;13.80;99.90;;;12.50;100.00;101964.69;2565877;30;137477;-40
2021/09/07 04:26:05;;;;;;;12.50;7.15;;;13.80;99.90;;;12.52;100.00;101970.78;2569439;30;137806;-39
2021/09/07 04:28:33;;;;;;;11.90;6.78;;;13.90;99.90;;;12.56;100.00;101965.75;2569407;30;137617;-39
2021/09/07 04:31:00;;;;;;;;;;;13.90;99.90;;;12.59;100.00;101970.81;2570356;30;138359;-39
2021/09/07 04:33:28;;;;;;;12.40;6.93;;;13.90;99.90;;;12.59;100.00;101962.63;2568766;30;137237;-39
2021/09/07 04:35:56;;;;;;;10.98;6.43;;;13.90;99.90;;;12.61;100.00;101960.56;2569953;30;138341;-40
2021/09/07 04:38:23;;;;;;;11.65;6.63;;;14.00;99.90;;;12.62;100.00;101965.00;2566474;30;137027;-39
2021/09/07 04:40:51;;;;;;;12.80;7.25;;;14.00;99.90;;;12.65;100.00;101970.06;2568708;30;139040;-39
2021/09/07 04:43:18;;;;;;;11.10;7.10;;;14.00;99.90;;;12.65;100.00;101969.19;2569721;30;137712;-39
2021/09/07 04:45:46;;;;;;;10.98;6.75;;;14.00;99.90;;;12.68;100.00;101968.78;2567187;30;138872;-39
2021/09/07 04:48:14;;;;;;;13.10;6.53;;;14.00;99.90;;;12.73;100.00;101977.28;2568277;30;136950;-39
2021/09/07 04:50:41;;;;;;;11.60;6.95;;;14.10;99.90;;;12.74;100.00;101973.50;2570882;30;137379;-39
2021/09/07 04:53:09;;;;;;;11.55;6.53;;;14.10;99.90;;;12.78;100.00;101966.56;2569155;30;137740;-40
2021/09/07 04:55:37;;;;;;;11.02;6.78;;;14.10;99.90;;;12.72;100.00;101959.13;2568723;30;137792;-39
2021/09/07 04:58:08;;;;;;;12.93;7.32;;;14.10;99.90;;;12.81;100.00;101968.06;2567407;30;137669;-39
2021/09/07 05:00:36;;;;;;;13.23;6.82;;;14.20;99.90;;;12.85;100.00;101972.06;2569932;30;137984;-40
2021/09/07 05:03:04;;;;;;;11.32;6.80;;;14.20;99.90;;;12.89;100.00;101967.06;2568661;30;137294;-39
2021/09/07 05:05:32;;;;;;;;;;;14.20;99.90;;;12.92;100.00;101963.91;2568728;30;138444;-39
2021/09/07 05:07:59;;;;;;;12.43;7.13;;;14.20;99.90;;;12.94;100.00;101967.28;2569267;30;137152;-40
2021/09/07 05:10:27;;;;;;;10.30;6.53;;;14.20;99.90;;;12.96;100.00;101967.94;2566240;30;138625;-39
2021/09/07 05:12:55;;;;;;;12.52;6.65;;;14.30;99.90;;;12.98;100.00;101974.06;2568814;30;137114;-39
2021/09/07 05:15:22;;;;;;;13.80;7.10;;;14.30;99.90;;;13.00;100.00;101974.75;2567769;30;137688;-40
2021/09/07 05:17:50;;;;;;;12.27;6.97;;;14.30;99.90;;;13.03;100.00;101971.59;2569370;30;137660;-39
2021/09/07 05:20:18;;;;;;;13.38;7.57;;;14.40;99.90;;;13.05;100.00;101974.97;2569421;30;138078;-41
2021/09/07 05:22:46;;;;;;;12.13;7.38;;;14.40;99.90;;;13.11;100.00;101988.91;2567860;30;136688;-41
2021/09/07 05:25:14;;;;;;;14.63;8.68;;;14.40;99.90;;;13.16;100.00;101981.78;2569190;30;137590;-39
2021/09/07 05:27:41;;;;;;;12.35;8.20;;;14.50;99.90;;;13.22;100.00;101982.84;2569200;30;136796;-39
2021/09/07 05:30:11;;;;;;;14.20;7.95;;;14.50;99.90;;;13.25;100.00;101982.44;2569389;30;138627;-39
2021/09/07 05:32:39;;;;;;;13.70;8.02;;;14.50;99.90;;;13.27;100.00;101990.47;2571060;30;136959;-40
2021/09/07 05:35:07;;;;;;;;;;;14.50;99.90;;;13.31;100.00;101984.41;2570035;30;137333;-39
2021/09/07 05:37:39;;;;;;;16.17;7.80;;;14.60;99.90;;;13.34;100.00;101978.50;2569438;30;138152;-41
2021/09/07 05:40:10;;;;;;;14.73;7.93;;;14.70;99.90;;;13.41;100.00;101983.16;2568851;30;138467;-39
2021/09/07 05:42:42;;;;;;;14.15;7.57;;;14.70;99.90;;;13.43;100.00;101984.72;2569705;30;136886;-41
2021/09/07 05:45:16;;;;;;;11.80;7.78;;;14.70;99.90;;;13.48;100.00;101982.19;2568407;30;137297;-39
2021/09/07 05:47:44;;;;;;;15.38;7.95;;;14.80;99.90;;;13.54;100.00;101988.75;2567979;30;136970;-40
2021/09/07 05:50:16;;;;;;;14.43;7.47;;;14.80;99.90;;;13.60;100.00;101985.19;2566297;30;138427;-39
2021/09/07 05:52:45;;;;;;;12.98;7.63;;;14.80;99.90;;;13.64;100.00;101989.22;2569508;30;137397;-39
2021/09/07 05:55:14;;;;;;;12.82;8.45;;;14.90;99.90;;;13.70;100.00;101997.66;2566048;30;138598;-39
2021/09/07 05:57:43;;;;;;;13.20;8.20;;;14.90;99.90;;;13.78;100.00;101995.59;2569110;30;137522;-40
2021/09/07 06:00:12;;;;;;;12.57;8.13;;;15.00;99.90;;;13.86;100.00;102001.94;2569439;30;137510;-39
2021/09/07 06:02:41;;;;;;;15.18;8.02;;;15.10;99.90;;;13.93;100.00;102000.91;2568343;30;137225;-39
2021/09/07 06:05:10;;;;;;;14.05;8.05;;;15.10;99.90;;;14.02;100.00;101992.50;2567466;30;137857;-40
2021/09/07 06:07:39;;;;;;;13.35;8.43;;;15.20;99.90;;;14.10;100.00;101993.16;2567854;30;137036;-39
2021/09/07 06:10:09;;;;;;;15.52;8.98;;;15.30;99.90;;;14.20;100.00;101991.94;2568780;30;138470;-40
2021/09/07 06:12:37;;;;;;;17.23;8.52;;;15.40;99.90;;;14.28;100.00;101986.22;2569297;30;138382;-39
2021/09/07 06:15:07;;;;;;;13.25;8.40;;;15.40;99.90;;;14.38;100.00;101994.88;2570837;30;138825;-40
2021/09/07 06:17:35;;;;;;;15.27;8.65;;;15.50;99.90;;;14.47;100.00;102001.03;2570246;30;138689;-40
2021/09/07 06:20:04;;;;;;;15.85;8.65;;;15.60;99.90;;;14.57;100.00;102000.59;2567576;30;138559;-39
2021/09/07 06:22:33;;;;;;;16.92;8.88;;;15.70;99.90;;;14.67;100.00;101998.28;2568921;30;136935;-40
2021/09/07 06:25:00;;;;;;;14.00;8.63;;;15.80;99.90;;;14.78;100.00;101999.56;2566403;30;138584;-40
2021/09/07 06:27:30;;;;;;;14.80;9.02;;;15.90;99.90;;;14.89;100.00;101997.25;2567425;30;137475;-39
2021/09/07 06:29:57;;;;;;;14.98;8.63;;;16.00;99.90;;;14.95;100.00;101990.91;2568146;30;138546;-40
2021/09/07 06:32:25;;;;;;;15.45;9.48;;;16.10;99.90;;;15.07;100.00;101989.19;2569559;30;138276;-40
2021/09/07 06:34:52;;;;;;;16.98;10.13;;;16.10;99.90;;;15.16;100.00;101994.47;2569601;30;138185;-39
2021/09/07 06:37:20;;;;;;;17.02;9.63;;;16.30;99.90;;;15.27;100.00;101995.72;2568759;30;136878;-40
2021/09/07 06:39:47;;;;;;;19.20;10.93;;;16.40;99.90;;;15.36;100.00;101994.41;2567494;30;138422;-40
2021/09/07 06:42:15;;;;;;;18.17;10.38;;;16.40;99.90;;;15.44;100.00;101994.16;2568195;30;137613;-40
2021/09/07 06:44:43;;;;;;;17.73;10.50;;;16.50;99.90;;;15.55;100.00;101997.31;2568038;30;138396;-40
2021/09/07 06:47:10;;;;;;;18.08;10.52;;;16.60;99.90;;;15.68;100.00;101997.25;2571306;30;137730;-41
2021/09/07 06:49:38;;;;;;;18.45;10.27;;;16.70;99.90;;;15.82;99.83;102003.53;2567485;30;136854;-41
2021/09/07 06:52:06;;;;;;;18.77;10.88;;;16.80;99.90;;;15.95;96.77;102009.00;2568427;30;138122;-41
2021/09/07 06:54:33;;;;;;;;;;;16.90;99.90;;;16.06;94.69;102014.88;2568242;30;137474;-42
2021/09/07 06:57:01;;;;;;;21.17;11.32;;;17.00;99.90;;;16.17;92.74;102016.09;2566330;30;137649;-41
2021/09/07 06:59:29;;;;;;;18.25;10.77;;;17.10;99.90;;;16.25;91.54;102016.66;2566544;30;137239;-41
2021/09/07 07:01:57;;;;;;;22.20;11.70;;;17.20;99.90;;;16.38;90.85;102017.63;2565127;30;136842;-41
2021/09/07 07:04:24;;;;;;;23.60;12.18;;;17.30;99.90;;;16.50;90.54;102021.38;2568053;30;137678;-42
2021/09/07 07:06:52;;;;;;;22.58;12.63;;;17.40;99.90;;;16.64;90.97;102021.25;2566145;30;137330;-41
2021/09/07 07:09:20;;;;;;;24.90;13.93;;;17.50;99.90;;;16.72;89.73;102021.00;2567920;30;138179;-43
2021/09/07 07:11:47;;;;;;;19.70;12.10;;;17.60;99.90;;;16.81;90.14;102022.38;2567580;30;138766;-42
2021/09/07 07:14:20;;;;;;;21.90;12.48;;;17.70;99.90;;;16.92;90.85;102026.31;2568231;30;138600;-47
2021/09/07 07:16:50;;;;;;;24.27;13.63;;;17.80;99.90;;;16.96;87.61;102024.78;2566840;30;138375;-41
2021/09/07 07:19:18;;;;;;;22.83;13.23;;;17.90;99.90;;;17.08;88.51;102044.22;2568355;30;138213;-42
2021/09/07 07:21:47;;;;;;;20.33;12.40;;;18.00;99.90;;;17.23;90.93;102041.09;2566544;30;137691;-41
2021/09/07 07:24:17;;;;;;;23.30;13.52;;;18.10;99.90;;;17.27;85.96;102037.91;2567454;30;138241;-42
2021/09/07 07:26:58;;;;;;;20.38;13.30;;;18.20;99.90;;;17.35;84.42;102037.59;2566652;30;136667;-41
2021/09/07 07:29:26;;;;;;;22.48;13.57;;;18.20;99.90;;;17.38;82.68;102032.47;2568920;30;138064;-41
2021/09/07 07:31:53;;;;;;;21.42;12.75;;;18.30;99.90;;;17.43;80.44;102044.72;2565808;30;138417;-43
2021/09/07 07:34:21;;;;;;;24.90;13.05;;;18.30;99.90;;;17.55;82.28;102048.41;2568111;30;138871;-42
2021/09/07 07:36:53;;;;;;;20.30;12.13;;;18.40;99.90;;;17.57;82.05;102046.28;2569052;30;137544;-41
2021/09/07 07:39:21;;;;;;;23.42;13.15;;;18.50;99.90;;;17.71;80.29;102046.09;2568521;30;137929;-46
2021/09/07 07:41:49;;;;;;;22.40;14.38;;;18.60;99.90;;;17.81;78.95;102054.69;2568083;30;137443;-41
2021/09/07 07:44:17;;;;;;;23.80;13.20;;;18.70;99.90;;;17.88;79.25;102049.91;2566698;30;138365;-44
2021/09/07 07:46:44;;;;;;;;;;;18.70;99.90;;;18.02;79.27;102052.53;2569141;30;138748;-41
2021/09/07 07:49:12;;;;;;;23.67;13.63;;;18.80;99.90;;;18.08;77.34;102052.44;2568212;30;137597;-42
2021/09/07 07:51:41;;;;;;;27.55;14.40;;;19.00;99.90;;;18.16;76.89;102054.03;2569432;30;137433;-42
2021/09/07 07:54:09;;;;;;;23.92;13.45;;;19.00;99.90;;;18.24;78.58;102050.94;2566154;30;137358;-42
2021/09/07 07:56:38;;;;;;;23.75;13.93;;;19.10;99.90;;;18.28;76.18;102050.47;2567748;30;136865;-41
2021/09/07 07:59:06;;;;;;;24.48;14.20;;;19.20;99.90;;;18.40;75.90;102048.59;2568848;30;138935;-41
2021/09/07 08:01:33;;;;;;;;;;;19.30;99.90;;;18.42;73.42;102051.97;2568698;30;137749;-41
2021/09/07 08:04:01;;;;;;;23.92;13.10;;;19.30;99.90;;;18.48;78.12;102050.19;2569220;30;139216;-40
2021/09/07 08:06:29;;;;;;;;;;;19.30;99.90;;;18.53;78.68;102056.69;2568475;30;136890;-42
2021/09/07 08:08:56;;;;;;;21.95;12.02;;;19.40;99.90;;;18.59;77.97;102056.84;2569187;30;137306;-42
2021/09/07 08:11:24;;;;;;;25.73;13.40;;;19.40;99.90;;;18.66;75.81;102050.09;2569004;30;138554;-41
2021/09/07 08:13:52;;;;;;;24.17;13.63;;;19.50;99.90;;;18.71;73.82;102054.91;2567113;30;138526;-42
2021/09/07 08:16:22;;;;;;;24.75;13.65;;;19.60;99.90;;;18.87;76.21;102058.09;2568013;30;138394;-42
2021/09/07 08:18:49;;;;;;;19.98;12.30;;;19.60;99.90;;;18.95;76.49;102057.72;2569019;30;139524;-43
2021/09/07 08:21:17;;;;;;;;;;;19.80;99.90;;;19.00;76.33;102059.81;2568877;30;136829;-42
2021/09/07 08:23:44;;;;;;;23.30;12.90;;;19.80;99.90;;;19.06;74.44;102067.13;2568010;30;138151;-41
2021/09/07 08:26:13;;;;;;;22.95;12.90;;;19.90;99.90;;;19.09;72.71;102064.72;2568385;30;138374;-42
2021/09/07 08:28:40;;;;;;;23.35;11.95;;;19.90;99.90;;;19.18;70.59;102059.66;2568713;30;137287;-41
2021/09/07 08:31:09;;;;;;;;;;;20.00;99.90;;;19.20;66.90;102063.03;2568343;30;137075;-41
2021/09/07 08:33:37;;;;;;;26.40;13.57;;;20.00;99.90;;;19.31;67.92;102064.13;2567312;30;137119;-40
2021/09/07 08:36:04;;;;;;;22.65;13.40;;;20.10;99.90;;;19.51;69.88;102069.28;2565048;30;136884;-39
2021/09/07 08:38:32;;;;;;;26.25;14.38;;;20.20;99.90;;;19.65;68.37;102061.56;2568264;30;137532;-40
2021/09/07 08:40:59;;;;;;;;;;;20.30;99.90;;;19.71;67.98;102065.25;2567078;30;138142;-39
2021/09/07 08:43:27;;;;;;;19.05;11.52;;;;;;;19.83;69.93;102062.47;2569082;30;136859;-39
2021/09/07 08:45:58;;;;;;;21.92;13.20;;;20.50;99.90;;;19.91;64.41;102073.22;2567977;30;137407;-39
2021/09/07 08:48:26;;;;;;;22.15;13.50;;;20.60;99.90;;;20.01;65.77;102055.09;2568988;30;138244;-39
2021/09/07 08:50:56;;;;;;;22.90;13.75;;;20.70;99.90;;;20.07;65.63;102063.28;2568311;30;136749;-39
2021/09/07 08:53:39;;;;;;;25.30;14.45;;;20.70;99.90;;;20.19;65.50;102068.78;2568396;30;138460;-39
2021/09/07 08:56:09;;;;;;;22.30;12.75;;;20.80;99.90;;;20.30;63.74;102055.09;2568427;30;137701;-41
2021/09/07 08:58:38;;;;;;;19.92;12.65;;;20.90;99.90;;;20.48;65.39;102065.97;2566855;30;137217;-39
2021/09/07 09:01:17;;;;;;;23.63;13.05;;;21.10;99.90;;;20.50;61.05;102061.03;2568765;30;137752;-39
2021/09/07 09:03:47;;;;;;;22.80;12.70;;;21.20;99.90;;;20.57;63.57;102069.19;2567069;30;137368;-39
2021/09/07 09:06:26;;;;;;;23.92;12.93;;;21.30;99.90;;;20.61;61.44;102055.66;2567547;30;136931;-38
2021/09/07 09:09:06;;;;;;;19.15;11.02;;;21.40;99.90;;;20.74;62.46;102052.56;2567834;30;138347;-41
2021/09/07 09:11:57;;;;;;;21.98;13.45;;;21.40;99.90;;;20.72;61.43;102051.13;2568692;30;136719;-42
2021/09/07 09:14:45;;;;;;;22.50;12.35;;;21.50;99.90;;;20.92;62.86;102047.88;2567990;30;137289;-41
2021/09/07 09:17:27;;;;;;;21.35;12.88;;;21.60;99.90;;;20.94;62.94;102052.06;2568978;30;138676;-39
2021/09/07 09:20:17;;;;;;;21.58;11.88;;;21.70;99.90;;;21.12;63.09;102052.91;2569107;30;137270;-42
2021/09/07 09:22:53;;;;;;;19.48;11.80;;;21.80;99.90;;;21.12;62.93;102053.72;2568677;30;136728;-42
2021/09/07 09:25:24;;;;;;;22.75;12.38;;;21.90;99.90;;;21.16;59.97;102054.06;2567349;30;137037;-42
2021/09/07 09:27:55;;;;;;;22.70;11.07;;;22.00;99.90;;;21.35;61.79;102051.00;2567233;30;137410;-41
2021/09/07 09:30:30;;;;;;;;;;;22.10;99.90;;;21.32;59.39;102062.59;2568319;30;137351;-42
2021/09/07 09:32:58;;;;;;;19.77;11.93;;;22.10;99.90;;;21.54;60.49;102062.66;2567963;30;136998;-43
2021/09/07 09:35:28;;;;;;;20.38;11.20;;;22.20;99.90;;;21.76;61.93;102056.31;2566373;30;137557;-41
2021/09/07 09:38:06;;;;;;;21.52;11.48;;;22.40;99.90;;;21.96;58.88;102062.09;2567338;30;136750;-41
2021/09/07 09:40:34;;;;;;;19.27;11.40;;;22.50;99.90;;;22.20;60.49;102052.63;2567661;30;139490;-42
2021/09/07 09:43:33;;;;;;;21.38;12.07;;;22.70;99.90;;;22.40;57.28;102038.09;2568475;30;137828;-39
2021/09/07 09:46:16;;;;;;;14.85;9.57;;;;;;;22.69;56.69;102043.38;2567606;30;138158;-41
2021/09/07 09:48:44;;;;;;;16.70;10.15;;;;;;;22.84;55.22;102043.53;2567429;30;137438;-41
2021/09/07 09:51:17;;;;;;;14.60;9.25;;;22.90;99.90;;;22.94;56.93;102041.91;2566618;30;138143;-41
2021/09/07 09:53:50;;;;;;;16.90;9.40;;;23.50;99.90;;;22.88;54.37;102035.47;2570095;30;136821;-39
2021/09/07 09:56:18;;;;;;;15.90;9.45;;;23.50;99.90;;;23.03;57.70;102033.91;2568729;30;137413;-39
2021/09/07 09:58:47;;;;;;;15.27;9.10;;;;;;;23.18;55.69;102033.16;2567017;30;138083;-39
2021/09/07 10:01:17;;;;;;;16.08;8.55;;;23.60;99.90;;;23.33;56.96;102029.66;2565718;30;137478;-39
2021/09/07 10:03:48;;;;;;;16.30;9.57;;;;;;;23.38;51.84;102022.19;2567051;30;137638;-39
2021/09/07 10:06:18;;;;;;;16.08;8.98;;;23.90;99.90;;;23.58;54.88;102025.31;2567193;30;137825;-39
2021/09/07 10:08:47;;;;;;;16.42;8.88;;;24.10;99.90;;;23.67;52.96;102021.75;2568707;30;137400;-42
2021/09/07 10:11:24;;;;;;;13.70;8.10;;;24.20;99.90;;;23.81;53.14;102022.06;2567910;30;137025;-39